Terminal Aerodrome Forecast
Issued by NWS Boise, ID

Home | Current Version | Previous Version | Text Only | Print | Product List | Glossary On
Versions: 1 2 3 4 5 6 7 8 9 10 11 12 13 14 15 16 17 18
000
FTUS45 KBOI 061742
TAFBOI
TAF
KBOI 061742Z 0618/0718 VRB06KT P6SM VCSH SCT060 BKN100
     FM062000 30011KT P6SM -SHRA BKN080 OVC150
      TEMPO 0620/0622 VRB15G25KT -TSRA SCT060CB OVC100
     FM070100 30012KT P6SM -RA BKN060 OVC120
      TEMPO 0701/0704 VRB20G35KT -TSRA OVC050CB
     FM070600 VRB06KT P6SM SCT060 BKN100=

USA.gov is the U.S. government's official web portal to all federal, state and local government web resources and services.